createdAt,value
2019-05-07T00:01:17.673Z,9.60
2019-05-07T00:03:46.502Z,9.60
2019-05-07T00:06:15.702Z,9.60
2019-05-07T00:08:45.073Z,9.60
2019-05-07T00:11:14.111Z,9.60
2019-05-07T00:13:44.516Z,9.60
2019-05-07T00:16:13.591Z,9.60
2019-05-07T00:18:43.023Z,9.50
2019-05-07T00:21:12.635Z,9.50
2019-05-07T00:23:43.208Z,9.50
2019-05-07T00:26:13.237Z,9.40
2019-05-07T00:28:43.190Z,9.50
2019-05-07T00:31:12.494Z,9.50
2019-05-07T00:33:43.204Z,9.50
2019-05-07T00:36:18.933Z,9.40
2019-05-07T00:38:52.140Z,9.40
2019-05-07T00:41:34.751Z,9.40
2019-05-07T00:44:04.368Z,9.40
2019-05-07T00:46:33.474Z,9.40
2019-05-07T00:49:02.480Z,9.40
2019-05-07T00:51:35.375Z,9.30
2019-05-07T00:54:05.602Z,9.30
2019-05-07T00:56:34.619Z,9.40
2019-05-07T00:59:03.581Z,9.30
2019-05-07T01:01:33.563Z,9.20
2019-05-07T01:04:02.762Z,9.20
2019-05-07T01:06:42.353Z,9.20
2019-05-07T01:09:12.297Z,9.40
2019-05-07T01:11:42.938Z,9.30
2019-05-07T01:14:12.431Z,9.20
2019-05-07T01:16:42.202Z,9.10
2019-05-07T01:19:12.576Z,9.10
2019-05-07T01:21:43.230Z,9.10
2019-05-07T01:24:12.674Z,9.00
2019-05-07T01:26:42.559Z,9.00
2019-05-07T01:29:12.860Z,8.80
2019-05-07T01:31:52.530Z,8.80
2019-05-07T01:34:27.985Z,8.80
2019-05-07T01:36:56.997Z,8.80
2019-05-07T01:39:25.901Z,8.90
2019-05-07T01:41:54.976Z,8.80
2019-05-07T01:44:24.243Z,8.70
2019-05-07T01:46:53.075Z,8.60
2019-05-07T01:49:24.064Z,8.60
2019-05-07T01:51:53.064Z,8.70
2019-05-07T01:54:23.840Z,8.80
2019-05-07T01:56:52.963Z,8.90
2019-05-07T01:59:22.453Z,8.80
2019-05-07T02:01:53.319Z,8.70
2019-05-07T02:04:47.459Z,8.70
2019-05-07T02:07:23.280Z,8.70
2019-05-07T02:09:57.316Z,8.70
2019-05-07T02:12:28.965Z,8.70
2019-05-07T02:14:57.922Z,8.80
2019-05-07T02:17:26.996Z,8.80
2019-05-07T02:19:56.057Z,8.70
2019-05-07T02:22:25.127Z,8.70
2019-05-07T02:24:54.537Z,8.70
2019-05-07T02:27:23.418Z,8.70
2019-05-07T02:29:52.816Z,8.80
2019-05-07T02:32:23.991Z,8.80
2019-05-07T02:34:54.446Z,8.90
2019-05-07T02:37:37.633Z,9.00
2019-05-07T02:40:14.118Z,8.90
2019-05-07T02:42:44.418Z,8.90
2019-05-07T02:45:39.445Z,8.80
2019-05-07T02:48:08.831Z,8.70
2019-05-07T02:50:44.745Z,8.70
2019-05-07T02:53:23.071Z,8.60
2019-05-07T02:55:54.316Z,8.60
2019-05-07T02:58:24.163Z,8.70
2019-05-07T03:00:53.515Z,8.80
2019-05-07T03:03:24.648Z,8.80
2019-05-07T03:05:53.850Z,8.80
2019-05-07T03:08:27.143Z,8.80
2019-05-07T03:10:53.994Z,8.80
2019-05-07T03:13:23.952Z,8.70
2019-05-07T03:15:53.990Z,8.80
2019-05-07T03:18:23.925Z,8.80
2019-05-07T03:20:57.913Z,8.70
2019-05-07T03:23:34.024Z,8.70
2019-05-07T03:26:09.077Z,8.70
2019-05-07T03:29:00.040Z,8.70
2019-05-07T03:31:48.094Z,8.70
2019-05-07T03:34:27.949Z,8.70
2019-05-07T03:36:57.714Z,8.60
2019-05-07T03:39:27.205Z,8.60
2019-05-07T03:41:56.178Z,8.50
2019-05-07T03:44:33.792Z,8.50
2019-05-07T03:47:16.501Z,8.50
2019-05-07T03:49:45.585Z,8.50
2019-05-07T03:52:14.564Z,8.50
2019-05-07T03:54:43.606Z,8.50
2019-05-07T03:57:15.624Z,8.40
2019-05-07T03:59:43.522Z,8.30
2019-05-07T04:02:14.182Z,8.30
2019-05-07T04:04:43.573Z,8.30
2019-05-07T04:07:13.824Z,8.40
2019-05-07T04:09:43.742Z,8.40
2019-05-07T04:12:13.437Z,8.40
2019-05-07T04:14:43.175Z,8.40
2019-05-07T04:17:16.851Z,8.30
2019-05-07T04:19:44.051Z,8.30
2019-05-07T04:22:13.725Z,8.20
2019-05-07T04:24:54.623Z,8.30
2019-05-07T04:27:28.778Z,8.30
2019-05-07T04:29:57.736Z,8.40
2019-05-07T04:32:33.446Z,8.50
2019-05-07T04:35:09.509Z,8.60
2019-05-07T04:37:38.397Z,8.50
2019-05-07T04:40:07.475Z,8.50
2019-05-07T04:42:36.375Z,8.50
2019-05-07T04:45:05.904Z,8.40
2019-05-07T04:47:42.907Z,8.50
2019-05-07T04:50:06.669Z,8.50
2019-05-07T04:52:37.163Z,8.50
2019-05-07T04:55:07.208Z,8.40
2019-05-07T04:57:36.344Z,8.40
2019-05-07T05:00:07.488Z,8.50
2019-05-07T05:02:54.293Z,8.50
2019-05-07T05:05:24.084Z,8.60
2019-05-07T05:07:53.540Z,8.60
2019-05-07T05:10:23.381Z,8.60
2019-05-07T05:12:53.685Z,8.70
2019-05-07T05:15:22.995Z,8.70
2019-05-07T05:17:54.031Z,8.70
2019-05-07T05:20:29.796Z,8.60
2019-05-07T05:23:12.238Z,8.50
2019-05-07T05:25:43.110Z,8.70
2019-05-07T05:28:13.159Z,8.70
2019-05-07T05:30:45.599Z,8.80
2019-05-07T05:33:14.770Z,8.70
2019-05-07T05:35:44.123Z,8.80
2019-05-07T05:38:13.243Z,8.70
2019-05-07T05:40:42.830Z,8.70
2019-05-07T05:43:36.355Z,8.80
2019-05-07T05:46:06.283Z,8.90
2019-05-07T05:48:35.644Z,8.80
2019-05-07T05:51:23.775Z,8.90
2019-05-07T05:53:57.946Z,9.00
2019-05-07T05:56:42.812Z,9.10
2019-05-07T05:59:47.335Z,9.20
2019-05-07T06:02:16.042Z,9.60
2019-05-07T06:04:58.769Z,9.80
2019-05-07T06:07:38.363Z,10.00
2019-05-07T06:10:16.411Z,10.20
2019-05-07T06:12:52.288Z,10.30
2019-05-07T06:15:43.264Z,10.40
2019-05-07T06:18:32.724Z,10.50
2019-05-07T06:21:12.577Z,10.60
2019-05-07T06:23:46.167Z,10.80
2019-05-07T06:26:15.198Z,10.90
2019-05-07T06:28:44.615Z,10.70
2019-05-07T06:31:13.982Z,10.80
2019-05-07T06:33:43.097Z,10.90
2019-05-07T06:36:12.606Z,10.40
2019-05-07T06:38:50.613Z,10.40
2019-05-07T06:41:29.678Z,10.40
2019-05-07T06:44:02.168Z,10.60
2019-05-07T06:46:32.298Z,10.80
2019-05-07T06:49:02.190Z,10.60
2019-05-07T06:51:32.862Z,10.70
2019-05-07T06:54:02.796Z,11.00
2019-05-07T06:56:32.541Z,11.30
2019-05-07T06:59:09.635Z,11.70
2019-05-07T07:01:59.222Z,11.90
2019-05-07T07:04:47.549Z,11.70
2019-05-07T07:07:27.434Z,11.70
2019-05-07T07:10:25.837Z,11.50
2019-05-07T07:12:55.047Z,11.80
2019-05-07T07:15:24.143Z,11.90
2019-05-07T07:17:53.228Z,12.00
2019-05-07T07:20:22.346Z,12.30
2019-05-07T07:22:52.077Z,12.70
2019-05-07T07:25:22.865Z,12.70
2019-05-07T07:27:52.300Z,13.10
2019-05-07T07:30:28.633Z,13.00
2019-05-07T07:32:59.140Z,13.00
2019-05-07T07:35:28.161Z,13.50
2019-05-07T07:37:57.196Z,13.50
2019-05-07T07:40:42.194Z,13.30
2019-05-07T07:43:12.866Z,13.40
2019-05-07T07:45:42.129Z,13.80
2019-05-07T07:48:13.151Z,14.80
2019-05-07T07:50:42.162Z,15.50
2019-05-07T07:53:13.010Z,16.20
2019-05-07T07:58:31.479Z,14.60
2019-05-07T08:01:12.200Z,14.40
2019-05-07T08:03:41.855Z,14.10
2019-05-07T08:06:11.937Z,13.80
2019-05-07T08:08:42.423Z,13.80
2019-05-07T08:11:12.657Z,13.90
2019-05-07T08:13:42.548Z,13.50
2019-05-07T08:16:12.935Z,13.50
2019-05-07T08:18:43.595Z,13.60
2019-05-07T08:21:12.910Z,13.90
2019-05-07T08:23:42.433Z,14.10
2019-05-07T08:26:12.718Z,14.10
2019-05-07T08:28:42.017Z,14.10
2019-05-07T08:31:32.985Z,13.90
2019-05-07T08:34:09.299Z,14.00
2019-05-07T08:36:38.226Z,14.50
2019-05-07T08:39:07.423Z,15.20
2019-05-07T08:41:36.587Z,16.00
2019-05-07T08:44:12.913Z,16.70
2019-05-07T08:46:47.472Z,16.60
2019-05-07T08:49:16.880Z,16.30
2019-05-07T08:51:51.852Z,17.10
2019-05-07T08:54:22.602Z,18.40
2019-05-07T08:56:52.754Z,19.30
2019-05-07T08:59:22.372Z,19.80
2019-05-07T09:01:52.022Z,20.50
2019-05-07T09:04:43.202Z,21.40
2019-05-07T09:07:13.159Z,20.60
2019-05-07T09:09:42.844Z,21.30
2019-05-07T09:12:12.535Z,22.40
2019-05-07T09:14:42.545Z,22.40
2019-05-07T09:17:12.820Z,20.60
2019-05-07T09:19:50.687Z,18.60
2019-05-07T09:22:12.964Z,19.80
2019-05-07T09:24:42.566Z,20.70
2019-05-07T09:27:22.312Z,21.50
2019-05-07T09:30:12.830Z,23.70
2019-05-07T09:32:54.807Z,21.40
2019-05-07T09:35:28.077Z,20.10
2019-05-07T09:37:57.115Z,19.10
2019-05-07T09:40:26.133Z,18.80
2019-05-07T09:42:55.767Z,21.60
2019-05-07T09:45:24.899Z,22.60
2019-05-07T09:47:53.966Z,21.80
2019-05-07T09:50:22.992Z,21.00
2019-05-07T09:52:52.039Z,21.50
2019-05-07T09:55:23.176Z,21.80
2019-05-07T09:57:52.725Z,21.80
2019-05-07T10:00:22.998Z,21.90
2019-05-07T10:02:52.854Z,23.60
2019-05-07T10:05:22.245Z,23.90
2019-05-07T10:07:52.620Z,25.00
2019-05-07T10:10:22.341Z,25.60
2019-05-07T10:13:01.909Z,25.50
2019-05-07T10:15:33.153Z,27.20
2019-05-07T10:18:08.265Z,29.00
2019-05-07T10:20:37.344Z,29.30
2019-05-07T10:23:08.143Z,29.40
2019-05-07T10:25:40.818Z,28.50
2019-05-07T10:28:09.835Z,28.10
2019-05-07T10:30:38.885Z,26.70
2019-05-07T10:33:07.922Z,23.80
2019-05-07T10:35:37.084Z,21.70
2019-05-07T10:38:06.126Z,20.80
2019-05-07T10:40:35.180Z,20.60
2019-05-07T10:43:04.260Z,20.10
2019-05-07T10:45:56.652Z,19.90
2019-05-07T10:48:32.776Z,19.50
2019-05-07T10:51:02.172Z,18.40
2019-05-07T10:53:32.018Z,18.00
2019-05-07T10:56:02.697Z,17.60
2019-05-07T10:58:32.232Z,18.00
2019-05-07T11:01:02.906Z,18.60
2019-05-07T11:03:32.489Z,18.60
2019-05-07T11:06:01.705Z,18.70
2019-05-07T11:08:32.678Z,18.80
2019-05-07T11:11:02.872Z,18.90
2019-05-07T11:13:32.728Z,19.00
2019-05-07T11:16:08.804Z,18.80
2019-05-07T11:18:42.633Z,19.20
2019-05-07T11:21:11.953Z,18.20
2019-05-07T11:23:41.898Z,17.50
2019-05-07T11:26:11.772Z,17.20
2019-05-07T11:28:40.908Z,16.40
2019-05-07T11:31:12.044Z,16.10
2019-05-07T11:33:41.641Z,16.30
2019-05-07T11:36:10.914Z,16.50
2019-05-07T11:38:42.238Z,16.80
2019-05-07T11:41:12.644Z,17.00
2019-05-07T11:44:05.512Z,17.60
2019-05-07T11:46:44.476Z,18.30
2019-05-07T11:49:27.027Z,19.00
2019-05-07T11:52:01.058Z,20.10
2019-05-07T11:54:31.865Z,20.40
2019-05-07T11:57:02.680Z,22.30
2019-05-07T11:59:32.587Z,23.20
2019-05-07T12:02:04.356Z,23.40
2019-05-07T12:04:33.472Z,24.60
2019-05-07T12:07:02.845Z,23.10
2019-05-07T12:09:33.281Z,21.90
2019-05-07T12:12:02.590Z,21.90
2019-05-07T12:14:34.710Z,21.50
2019-05-07T12:17:02.783Z,21.10
2019-05-07T12:19:33.041Z,20.50
2019-05-07T12:22:03.048Z,19.60
2019-05-07T12:24:32.850Z,20.20
2019-05-07T12:27:02.664Z,20.30
2019-05-07T12:29:32.380Z,20.20
2019-05-07T12:32:16.495Z,20.60
2019-05-07T12:34:48.652Z,21.40
2019-05-07T12:37:17.723Z,21.80
2019-05-07T12:39:46.857Z,24.10
2019-05-07T12:42:15.924Z,23.30
2019-05-07T12:44:45.087Z,22.60
2019-05-07T12:47:15.352Z,22.00
2019-05-07T12:49:44.651Z,21.20
2019-05-07T12:52:42.494Z,20.30
2019-05-07T12:55:17.833Z,20.50
2019-05-07T12:57:46.801Z,19.90
2019-05-07T13:00:34.410Z,19.80
2019-05-07T13:03:12.792Z,19.70
2019-05-07T13:05:42.007Z,19.80
2019-05-07T13:08:12.320Z,19.50
2019-05-07T13:10:42.886Z,19.50
2019-05-07T13:13:12.364Z,20.00
2019-05-07T13:15:43.261Z,20.00
2019-05-07T13:18:12.739Z,19.90
2019-05-07T13:20:42.120Z,20.00
2019-05-07T13:23:11.966Z,19.90
2019-05-07T13:25:42.904Z,20.00
2019-05-07T13:28:12.063Z,19.30
2019-05-07T13:30:43.604Z,19.10
2019-05-07T13:33:12.958Z,19.30
2019-05-07T13:35:44.392Z,18.90
2019-05-07T13:38:32.313Z,18.90
2019-05-07T13:41:23.872Z,19.00
2019-05-07T13:44:04.947Z,18.90
2019-05-07T13:46:34.589Z,18.60
2019-05-07T13:49:03.736Z,18.50
2019-05-07T13:51:33.789Z,18.00
2019-05-07T13:54:03.461Z,18.20
2019-05-07T13:56:32.730Z,18.20
2019-05-07T13:59:04.655Z,18.50
2019-05-07T14:01:51.673Z,18.90
2019-05-07T14:04:22.283Z,19.20
2019-05-07T14:06:52.961Z,19.00
2019-05-07T14:09:24.418Z,18.80
2019-05-07T14:11:53.693Z,18.70
2019-05-07T14:14:22.877Z,18.60
2019-05-07T14:16:53.045Z,18.10
2019-05-07T14:19:22.668Z,17.80
2019-05-07T14:21:52.705Z,17.50
2019-05-07T14:24:22.673Z,17.60
2019-05-07T14:26:52.917Z,17.40
2019-05-07T14:29:24.570Z,17.60
2019-05-07T14:32:17.968Z,17.60
2019-05-07T14:35:04.718Z,17.80
2019-05-07T14:37:37.317Z,17.80
2019-05-07T14:40:07.469Z,17.80
2019-05-07T14:42:47.548Z,17.80
2019-05-07T14:45:16.569Z,17.70
2019-05-07T14:47:45.605Z,17.70
2019-05-07T14:50:15.727Z,18.10
2019-05-07T14:52:44.793Z,18.30
2019-05-07T14:55:13.911Z,18.40
2019-05-07T14:57:42.981Z,18.30
2019-05-07T15:00:12.648Z,18.10
2019-05-07T15:02:42.353Z,18.00
2019-05-07T15:05:12.195Z,18.00
2019-05-07T15:07:50.914Z,17.90
2019-05-07T15:10:22.079Z,17.50
2019-05-07T15:12:52.200Z,17.00
2019-05-07T15:15:21.940Z,17.20
2019-05-07T15:18:12.137Z,17.20
2019-05-07T15:20:41.929Z,17.10
2019-05-07T15:23:28.616Z,17.10
2019-05-07T15:25:58.368Z,17.20
2019-05-07T15:28:29.696Z,17.30
2019-05-07T15:31:08.359Z,17.30
2019-05-07T15:33:37.431Z,17.40
2019-05-07T15:36:06.726Z,17.40
2019-05-07T15:38:36.168Z,17.40
2019-05-07T15:41:06.060Z,17.30
2019-05-07T15:43:35.211Z,16.80
2019-05-07T15:46:04.323Z,16.90
2019-05-07T15:48:33.452Z,16.80
2019-05-07T15:51:03.216Z,16.70
2019-05-07T15:53:42.603Z,16.90
2019-05-07T15:56:12.481Z,16.90
2019-05-07T15:58:42.611Z,16.80
2019-05-07T16:01:12.810Z,16.90
2019-05-07T16:03:43.773Z,16.70
2019-05-07T16:06:12.965Z,16.70
2019-05-07T16:08:49.073Z,16.60
2019-05-07T16:11:17.720Z,16.50
2019-05-07T16:13:52.801Z,16.50
2019-05-07T16:16:23.551Z,17.00
2019-05-07T16:19:11.879Z,16.90
2019-05-07T16:21:42.561Z,16.70
2019-05-07T16:24:12.167Z,16.60
2019-05-07T16:26:41.881Z,16.50
2019-05-07T16:29:13.353Z,16.60
2019-05-07T16:31:43.874Z,16.60
2019-05-07T16:34:13.016Z,16.50
2019-05-07T16:36:42.296Z,16.50
2019-05-07T16:39:12.047Z,16.50
2019-05-07T16:41:42.257Z,16.30
2019-05-07T16:44:12.299Z,16.20
2019-05-07T16:46:42.182Z,15.80
2019-05-07T16:49:12.077Z,15.60
2019-05-07T16:51:44.267Z,15.30
2019-05-07T16:54:12.317Z,15.40
2019-05-07T16:57:02.943Z,15.70
2019-05-07T16:59:32.446Z,15.70
2019-05-07T17:02:05.811Z,15.50
2019-05-07T17:04:34.864Z,15.50
2019-05-07T17:07:05.924Z,15.70
2019-05-07T17:09:35.463Z,15.70
2019-05-07T17:12:07.209Z,15.70
2019-05-07T17:14:36.186Z,15.50
2019-05-07T17:17:05.256Z,15.30
2019-05-07T17:19:34.350Z,15.40
2019-05-07T17:22:06.197Z,15.50
2019-05-07T17:24:33.881Z,15.50
2019-05-07T17:27:02.849Z,15.40
2019-05-07T17:29:32.220Z,15.50
2019-05-07T17:32:01.713Z,15.40
2019-05-07T17:34:30.920Z,15.40
2019-05-07T17:37:01.842Z,15.10
2019-05-07T17:39:32.185Z,15.20
2019-05-07T17:42:02.499Z,15.30
2019-05-07T17:44:32.519Z,15.00
2019-05-07T17:47:02.068Z,14.70
2019-05-07T17:49:32.763Z,14.60
2019-05-07T17:52:02.988Z,14.60
2019-05-07T17:54:32.477Z,14.70
2019-05-07T17:57:02.098Z,14.80
2019-05-07T17:59:32.072Z,14.90
2019-05-07T18:02:13.941Z,14.90
2019-05-07T18:04:50.763Z,15.00
2019-05-07T18:07:16.122Z,15.00
2019-05-07T18:09:45.173Z,14.70
2019-05-07T18:12:14.291Z,14.70
2019-05-07T18:14:43.268Z,14.70
2019-05-07T18:17:42.027Z,14.70
2019-05-07T18:20:12.872Z,14.50
2019-05-07T18:22:42.127Z,14.50
2019-05-07T18:25:12.475Z,14.50
2019-05-07T18:27:42.114Z,14.20
2019-05-07T18:30:12.887Z,14.20
2019-05-07T18:32:49.397Z,14.20
2019-05-07T18:35:18.449Z,14.20
2019-05-07T18:37:53.595Z,14.10
2019-05-07T18:40:22.916Z,14.10
2019-05-07T18:42:52.534Z,14.10
2019-05-07T18:45:21.932Z,14.00
2019-05-07T18:47:51.696Z,13.90
2019-05-07T18:50:22.529Z,13.90
2019-05-07T18:52:52.230Z,13.90
2019-05-07T18:55:22.678Z,13.90
2019-05-07T18:57:52.030Z,13.70
2019-05-07T19:00:28.515Z,13.70
2019-05-07T19:02:57.609Z,13.60
2019-05-07T19:05:26.640Z,13.50
2019-05-07T19:08:07.014Z,13.50
2019-05-07T19:10:26.526Z,13.50
2019-05-07T19:12:55.701Z,13.50
2019-05-07T19:15:24.815Z,13.40
2019-05-07T19:17:53.785Z,13.30
2019-05-07T19:20:22.746Z,13.20
2019-05-07T19:22:51.983Z,13.20
2019-05-07T19:25:21.172Z,13.00
2019-05-07T19:27:53.188Z,13.00
2019-05-07T19:30:22.392Z,13.00
2019-05-07T19:32:52.160Z,12.90
2019-05-07T19:35:23.084Z,12.90
2019-05-07T19:37:52.879Z,12.80
2019-05-07T19:40:22.474Z,12.90
2019-05-07T19:42:52.277Z,12.80
2019-05-07T19:45:24.282Z,12.70
2019-05-07T19:47:52.427Z,12.70
2019-05-07T19:50:23.362Z,12.80
2019-05-07T19:52:52.308Z,12.80
2019-05-07T19:55:22.022Z,12.60
2019-05-07T19:57:58.938Z,12.60
2019-05-07T20:00:27.964Z,12.50
2019-05-07T20:02:59.799Z,12.50
2019-05-07T20:05:29.636Z,12.40
2019-05-07T20:08:01.919Z,12.30
2019-05-07T20:10:38.458Z,12.20
2019-05-07T20:13:07.356Z,12.30
2019-05-07T20:15:37.513Z,12.30
2019-05-07T20:18:06.707Z,12.20
2019-05-07T20:20:35.628Z,12.10
2019-05-07T20:23:04.990Z,12.10
2019-05-07T20:25:34.002Z,12.30
2019-05-07T20:28:03.077Z,12.20
2019-05-07T20:30:32.899Z,12.00
2019-05-07T20:33:03.073Z,12.00
2019-05-07T20:35:32.651Z,12.00
2019-05-07T20:38:02.905Z,12.10
2019-05-07T20:40:32.547Z,12.10
2019-05-07T20:43:02.011Z,12.20
2019-05-07T20:45:32.020Z,12.10
2019-05-07T20:48:02.509Z,12.00
2019-05-07T20:50:33.278Z,12.00
2019-05-07T20:53:02.362Z,12.00
2019-05-07T20:55:53.048Z,12.00
2019-05-07T20:58:22.227Z,11.90
2019-05-07T21:00:52.588Z,11.80
2019-05-07T21:03:23.766Z,11.70
2019-05-07T21:05:53.366Z,11.60
2019-05-07T21:08:22.859Z,11.50
2019-05-07T21:10:53.550Z,11.50
2019-05-07T21:13:33.280Z,11.50
2019-05-07T21:15:53.509Z,11.60
2019-05-07T21:18:23.276Z,11.50
2019-05-07T21:20:53.128Z,11.30
2019-05-07T21:23:23.267Z,11.30
2019-05-07T21:25:52.961Z,11.10
2019-05-07T21:28:22.173Z,11.00
2019-05-07T21:30:52.180Z,10.90
2019-05-07T21:33:22.825Z,10.80
2019-05-07T21:35:52.439Z,10.80
2019-05-07T21:38:22.407Z,10.70
2019-05-07T21:40:51.466Z,10.80
2019-05-07T21:43:22.129Z,10.90
2019-05-07T21:45:52.992Z,10.90
2019-05-07T21:48:22.413Z,10.80
2019-05-07T21:50:52.054Z,10.70
2019-05-07T21:53:45.236Z,10.60
2019-05-07T21:56:39.573Z,10.60
2019-05-07T21:59:12.685Z,10.50
2019-05-07T22:01:46.654Z,10.50
2019-05-07T22:04:15.582Z,10.40
2019-05-07T22:06:45.527Z,10.50
2019-05-07T22:09:15.283Z,10.40
2019-05-07T22:11:44.270Z,10.40
2019-05-07T22:14:13.179Z,10.40
2019-05-07T22:16:42.305Z,10.40
2019-05-07T22:19:12.116Z,10.30
2019-05-07T22:21:43.158Z,10.20
2019-05-07T22:24:13.107Z,10.30
2019-05-07T22:26:42.914Z,10.20
2019-05-07T22:29:12.527Z,10.10
2019-05-07T22:31:52.991Z,10.10
2019-05-07T22:34:35.711Z,10.10
2019-05-07T22:37:04.825Z,10.00
2019-05-07T22:39:33.744Z,10.00
2019-05-07T22:42:02.646Z,10.00
2019-05-07T22:44:32.156Z,9.90
2019-05-07T22:47:18.613Z,9.90
2019-05-07T22:49:49.493Z,9.90
2019-05-07T22:52:19.225Z,9.70
2019-05-07T22:54:48.303Z,9.70
2019-05-07T22:57:33.171Z,9.70
2019-05-07T23:00:04.496Z,9.60
2019-05-07T23:02:32.568Z,9.60
2019-05-07T23:05:02.895Z,9.50
2019-05-07T23:07:32.866Z,9.50
2019-05-07T23:10:02.870Z,9.60
2019-05-07T23:12:32.909Z,9.50
2019-05-07T23:15:02.725Z,9.50
2019-05-07T23:17:32.635Z,9.50
2019-05-07T23:20:01.894Z,9.40
2019-05-07T23:22:32.445Z,9.30
2019-05-07T23:25:01.389Z,9.40
2019-05-07T23:27:32.370Z,9.30
2019-05-07T23:30:02.559Z,9.30
2019-05-07T23:32:32.979Z,9.30
2019-05-07T23:35:02.264Z,9.30
2019-05-07T23:37:33.169Z,9.30
2019-05-07T23:40:05.922Z,9.20
2019-05-07T23:42:36.554Z,9.10
2019-05-07T23:45:05.954Z,9.10
2019-05-07T23:47:35.250Z,9.10
2019-05-07T23:50:04.349Z,9.10
2019-05-07T23:52:33.450Z,9.10
2019-05-07T23:55:02.924Z,9.00
2019-05-07T23:57:32.502Z,9.10
